sensor_id;sensor_type;location;lat;lon;timestamp;P1;durP1;ratioP1;P2;durP2;ratioP2
61962;SDS011;47927;42.646;23.096;2023-04-25T00:02:20;2.67;;;1.10;;
61962;SDS011;47927;42.646;23.096;2023-04-25T00:04:47;4.22;;;1.77;;
61962;SDS011;47927;42.646;23.096;2023-04-25T00:07:14;2.60;;;1.15;;
61962;SDS011;47927;42.646;23.096;2023-04-25T00:09:41;5.28;;;1.48;;
61962;SDS011;47927;42.646;23.096;2023-04-25T00:12:06;4.68;;;1.10;;
61962;SDS011;47927;42.646;23.096;2023-04-25T00:14:32;4.65;;;1.70;;
61962;SDS011;47927;42.646;23.096;2023-04-25T00:17:01;3.88;;;1.80;;
61962;SDS011;47927;42.646;23.096;2023-04-25T00:19:28;5.68;;;1.50;;
61962;SDS011;47927;42.646;23.096;2023-04-25T00:21:54;3.20;;;1.30;;
61962;SDS011;47927;42.646;23.096;2023-04-25T00:24:20;4.75;;;1.65;;
61962;SDS011;47927;42.646;23.096;2023-04-25T00:26:46;7.70;;;2.50;;
61962;SDS011;47927;42.646;23.096;2023-04-25T00:29:11;4.35;;;2.25;;
61962;SDS011;47927;42.646;23.096;2023-04-25T00:34:26;3.55;;;1.98;;
61962;SDS011;47927;42.646;23.096;2023-04-25T00:36:52;6.63;;;2.00;;
61962;SDS011;47927;42.646;23.096;2023-04-25T00:39:18;3.42;;;1.58;;
61962;SDS011;47927;42.646;23.096;2023-04-25T00:41:43;4.30;;;2.17;;
61962;SDS011;47927;42.646;23.096;2023-04-25T00:44:10;4.93;;;2.13;;
61962;SDS011;47927;42.646;23.096;2023-04-25T00:46:37;5.40;;;2.45;;
61962;SDS011;47927;42.646;23.096;2023-04-25T00:49:04;5.55;;;2.40;;
61962;SDS011;47927;42.646;23.096;2023-04-25T00:51:30;4.32;;;1.95;;
61962;SDS011;47927;42.646;23.096;2023-04-25T00:53:57;4.47;;;1.95;;
61962;SDS011;47927;42.646;23.096;2023-04-25T00:56:23;2.88;;;1.35;;
61962;SDS011;47927;42.646;23.096;2023-04-25T00:58:49;8.55;;;2.30;;
61962;SDS011;47927;42.646;23.096;2023-04-25T01:01:15;3.47;;;1.88;;
61962;SDS011;47927;42.646;23.096;2023-04-25T01:03:41;5.25;;;1.88;;
61962;SDS011;47927;42.646;23.096;2023-04-25T01:06:09;2.95;;;1.40;;
61962;SDS011;47927;42.646;23.096;2023-04-25T01:08:36;3.77;;;1.50;;
61962;SDS011;47927;42.646;23.096;2023-04-25T01:11:03;2.40;;;1.20;;
61962;SDS011;47927;42.646;23.096;2023-04-25T01:13:29;1.85;;;1.00;;
61962;SDS011;47927;42.646;23.096;2023-04-25T01:15:57;2.17;;;1.17;;
61962;SDS011;47927;42.646;23.096;2023-04-25T01:18:36;2.97;;;1.30;;
61962;SDS011;47927;42.646;23.096;2023-04-25T01:23:33;2.65;;;1.35;;
61962;SDS011;47927;42.646;23.096;2023-04-25T01:25:59;3.30;;;1.67;;
61962;SDS011;47927;42.646;23.096;2023-04-25T01:28:29;3.65;;;1.67;;
61962;SDS011;47927;42.646;23.096;2023-04-25T01:30:55;3.80;;;1.77;;
61962;SDS011;47927;42.646;23.096;2023-04-25T01:33:22;5.65;;;2.00;;
61962;SDS011;47927;42.646;23.096;2023-04-25T01:35:48;3.58;;;2.13;;
61962;SDS011;47927;42.646;23.096;2023-04-25T01:38:14;3.75;;;1.95;;
61962;SDS011;47927;42.646;23.096;2023-04-25T01:40:40;5.45;;;2.17;;
61962;SDS011;47927;42.646;23.096;2023-04-25T01:43:07;3.90;;;2.05;;
61962;SDS011;47927;42.646;23.096;2023-04-25T01:45:37;4.22;;;2.40;;
61962;SDS011;47927;42.646;23.096;2023-04-25T01:48:08;6.07;;;2.45;;
61962;SDS011;47927;42.646;23.096;2023-04-25T01:50:36;4.78;;;2.53;;
61962;SDS011;47927;42.646;23.096;2023-04-25T01:53:03;6.13;;;2.67;;
61962;SDS011;47927;42.646;23.096;2023-04-25T01:55:30;4.38;;;2.28;;
61962;SDS011;47927;42.646;23.096;2023-04-25T01:58:03;6.55;;;3.15;;
61962;SDS011;47927;42.646;23.096;2023-04-25T02:01:00;5.93;;;3.20;;
61962;SDS011;47927;42.646;23.096;2023-04-25T02:03:31;6.55;;;3.67;;
61962;SDS011;47927;42.646;23.096;2023-04-25T02:05:58;8.77;;;4.18;;
61962;SDS011;47927;42.646;23.096;2023-04-25T02:08:24;8.27;;;5.00;;
61962;SDS011;47927;42.646;23.096;2023-04-25T02:10:53;8.63;;;4.55;;
61962;SDS011;47927;42.646;23.096;2023-04-25T02:13:19;6.13;;;4.03;;
61962;SDS011;47927;42.646;23.096;2023-04-25T02:16:03;6.18;;;3.83;;
61962;SDS011;47927;42.646;23.096;2023-04-25T02:18:29;9.10;;;3.42;;
61962;SDS011;47927;42.646;23.096;2023-04-25T02:20:57;6.90;;;3.95;;
61962;SDS011;47927;42.646;23.096;2023-04-25T02:23:23;5.75;;;3.78;;
61962;SDS011;47927;42.646;23.096;2023-04-25T02:25:49;7.30;;;4.22;;
61962;SDS011;47927;42.646;23.096;2023-04-25T02:28:15;5.53;;;3.58;;
61962;SDS011;47927;42.646;23.096;2023-04-25T02:30:40;13.77;;;4.28;;
61962;SDS011;47927;42.646;23.096;2023-04-25T02:33:06;6.95;;;3.85;;
61962;SDS011;47927;42.646;23.096;2023-04-25T02:35:31;7.90;;;5.63;;
61962;SDS011;47927;42.646;23.096;2023-04-25T02:37:57;8.88;;;6.10;;
61962;SDS011;47927;42.646;23.096;2023-04-25T02:40:23;9.07;;;4.70;;
61962;SDS011;47927;42.646;23.096;2023-04-25T02:42:48;9.43;;;5.50;;
61962;SDS011;47927;42.646;23.096;2023-04-25T02:45:14;8.38;;;5.75;;
61962;SDS011;47927;42.646;23.096;2023-04-25T02:47:39;8.80;;;6.10;;
61962;SDS011;47927;42.646;23.096;2023-04-25T02:50:05;13.48;;;6.20;;
61962;SDS011;47927;42.646;23.096;2023-04-25T02:52:31;13.27;;;6.70;;
61962;SDS011;47927;42.646;23.096;2023-04-25T02:55:12;12.10;;;7.20;;
61962;SDS011;47927;42.646;23.096;2023-04-25T02:57:38;12.43;;;5.85;;
61962;SDS011;47927;42.646;23.096;2023-04-25T03:00:04;11.80;;;6.03;;
61962;SDS011;47927;42.646;23.096;2023-04-25T03:02:30;16.00;;;8.73;;
61962;SDS011;47927;42.646;23.096;2023-04-25T03:04:56;14.13;;;6.90;;
61962;SDS011;47927;42.646;23.096;2023-04-25T03:07:21;14.13;;;6.95;;
61962;SDS011;47927;42.646;23.096;2023-04-25T03:09:47;14.60;;;8.23;;
61962;SDS011;47927;42.646;23.096;2023-04-25T03:12:13;10.80;;;7.22;;
61962;SDS011;47927;42.646;23.096;2023-04-25T03:14:38;12.35;;;7.72;;
61962;SDS011;47927;42.646;23.096;2023-04-25T03:17:04;13.98;;;7.80;;
61962;SDS011;47927;42.646;23.096;2023-04-25T03:19:30;12.63;;;7.95;;
61962;SDS011;47927;42.646;23.096;2023-04-25T03:21:55;10.55;;;7.30;;
61962;SDS011;47927;42.646;23.096;2023-04-25T03:24:21;10.15;;;6.85;;
61962;SDS011;47927;42.646;23.096;2023-04-25T03:26:47;13.57;;;7.07;;
61962;SDS011;47927;42.646;23.096;2023-04-25T03:29:12;16.65;;;7.93;;
61962;SDS011;47927;42.646;23.096;2023-04-25T03:31:40;13.73;;;6.88;;
61962;SDS011;47927;42.646;23.096;2023-04-25T03:36:43;12.13;;;8.25;;
61962;SDS011;47927;42.646;23.096;2023-04-25T03:39:10;16.48;;;7.63;;
61962;SDS011;47927;42.646;23.096;2023-04-25T03:41:37;13.68;;;7.95;;
61962;SDS011;47927;42.646;23.096;2023-04-25T03:44:08;16.30;;;8.82;;
61962;SDS011;47927;42.646;23.096;2023-04-25T03:46:33;13.30;;;7.97;;
61962;SDS011;47927;42.646;23.096;2023-04-25T03:48:59;12.68;;;7.38;;
61962;SDS011;47927;42.646;23.096;2023-04-25T03:51:35;8.75;;;5.72;;
61962;SDS011;47927;42.646;23.096;2023-04-25T03:54:01;10.25;;;5.40;;
61962;SDS011;47927;42.646;23.096;2023-04-25T03:56:29;9.68;;;5.60;;
61962;SDS011;47927;42.646;23.096;2023-04-25T03:59:02;11.63;;;5.50;;
61962;SDS011;47927;42.646;23.096;2023-04-25T04:04:57;11.27;;;5.55;;
61962;SDS011;47927;42.646;23.096;2023-04-25T04:14:35;8.05;;;4.28;;
61962;SDS011;47927;42.646;23.096;2023-04-25T04:17:01;7.13;;;4.32;;
61962;SDS011;47927;42.646;23.096;2023-04-25T04:23:14;6.18;;;4.50;;
61962;SDS011;47927;42.646;23.096;2023-04-25T04:25:40;5.78;;;3.83;;
61962;SDS011;47927;42.646;23.096;2023-04-25T04:28:17;7.53;;;4.03;;
61962;SDS011;47927;42.646;23.096;2023-04-25T04:34:43;7.13;;;4.20;;
61962;SDS011;47927;42.646;23.096;2023-04-25T04:37:13;10.38;;;4.60;;
61962;SDS011;47927;42.646;23.096;2023-04-25T04:39:39;8.88;;;4.80;;
61962;SDS011;47927;42.646;23.096;2023-04-25T04:42:21;8.38;;;4.13;;
61962;SDS011;47927;42.646;23.096;2023-04-25T04:45:12;9.10;;;3.97;;
61962;SDS011;47927;42.646;23.096;2023-04-25T04:47:58;5.43;;;3.65;;
61962;SDS011;47927;42.646;23.096;2023-04-25T04:50:55;9.80;;;3.42;;
61962;SDS011;47927;42.646;23.096;2023-04-25T04:53:47;6.40;;;3.95;;
61962;SDS011;47927;42.646;23.096;2023-04-25T04:56:38;8.68;;;3.80;;
61962;SDS011;47927;42.646;23.096;2023-04-25T04:59:22;8.30;;;4.43;;
61962;SDS011;47927;42.646;23.096;2023-04-25T05:02:05;9.82;;;4.35;;
61962;SDS011;47927;42.646;23.096;2023-04-25T05:04:49;9.90;;;4.40;;
61962;SDS011;47927;42.646;23.096;2023-04-25T05:07:19;11.30;;;4.32;;
61962;SDS011;47927;42.646;23.096;2023-04-25T05:09:59;9.40;;;5.45;;
61962;SDS011;47927;42.646;23.096;2023-04-25T05:12:42;6.93;;;4.05;;
61962;SDS011;47927;42.646;23.096;2023-04-25T05:15:35;9.32;;;4.05;;
61962;SDS011;47927;42.646;23.096;2023-04-25T05:18:16;7.03;;;3.88;;
61962;SDS011;47927;42.646;23.096;2023-04-25T05:21:19;6.10;;;3.55;;
61962;SDS011;47927;42.646;23.096;2023-04-25T05:24:04;5.30;;;3.38;;
61962;SDS011;47927;42.646;23.096;2023-04-25T05:26:56;7.20;;;4.22;;
61962;SDS011;47927;42.646;23.096;2023-04-25T05:29:55;7.45;;;4.63;;
61962;SDS011;47927;42.646;23.096;2023-04-25T05:32:27;6.13;;;4.20;;
61962;SDS011;47927;42.646;23.096;2023-04-25T05:34:53;10.50;;;4.30;;
61962;SDS011;47927;42.646;23.096;2023-04-25T05:37:24;7.25;;;3.90;;
61962;SDS011;47927;42.646;23.096;2023-04-25T05:39:56;7.30;;;3.25;;
61962;SDS011;47927;42.646;23.096;2023-04-25T05:42:39;9.18;;;3.95;;
61962;SDS011;47927;42.646;23.096;2023-04-25T05:45:25;5.85;;;3.10;;
61962;SDS011;47927;42.646;23.096;2023-04-25T05:48:07;7.50;;;3.78;;
61962;SDS011;47927;42.646;23.096;2023-04-25T05:50:56;7.28;;;3.72;;
61962;SDS011;47927;42.646;23.096;2023-04-25T05:53:46;7.35;;;3.35;;
61962;SDS011;47927;42.646;23.096;2023-04-25T05:56:12;6.28;;;3.33;;
61962;SDS011;47927;42.646;23.096;2023-04-25T05:58:39;6.13;;;3.28;;
61962;SDS011;47927;42.646;23.096;2023-04-25T06:01:05;8.25;;;3.92;;
61962;SDS011;47927;42.646;23.096;2023-04-25T06:03:31;7.78;;;2.97;;
61962;SDS011;47927;42.646;23.096;2023-04-25T06:05:57;8.02;;;3.58;;
61962;SDS011;47927;42.646;23.096;2023-04-25T06:08:23;6.57;;;4.25;;
61962;SDS011;47927;42.646;23.096;2023-04-25T06:10:48;11.02;;;2.95;;
61962;SDS011;47927;42.646;23.096;2023-04-25T06:13:14;4.65;;;2.40;;
61962;SDS011;47927;42.646;23.096;2023-04-25T06:15:40;8.85;;;2.83;;
61962;SDS011;47927;42.646;23.096;2023-04-25T06:18:06;6.95;;;3.05;;
61962;SDS011;47927;42.646;23.096;2023-04-25T06:20:33;6.70;;;3.20;;
61962;SDS011;47927;42.646;23.096;2023-04-25T06:22:59;8.30;;;3.45;;
61962;SDS011;47927;42.646;23.096;2023-04-25T06:25:45;8.68;;;3.08;;
61962;SDS011;47927;42.646;23.096;2023-04-25T06:28:11;5.43;;;2.72;;
61962;SDS011;47927;42.646;23.096;2023-04-25T06:30:36;11.15;;;3.25;;
61962;SDS011;47927;42.646;23.096;2023-04-25T06:33:07;7.53;;;3.20;;
61962;SDS011;47927;42.646;23.096;2023-04-25T06:35:34;8.23;;;3.35;;
61962;SDS011;47927;42.646;23.096;2023-04-25T06:38:00;9.43;;;3.13;;
61962;SDS011;47927;42.646;23.096;2023-04-25T06:40:25;9.07;;;2.95;;
61962;SDS011;47927;42.646;23.096;2023-04-25T06:42:51;6.30;;;2.85;;
61962;SDS011;47927;42.646;23.096;2023-04-25T06:45:33;9.57;;;3.08;;
61962;SDS011;47927;42.646;23.096;2023-04-25T06:47:58;4.78;;;2.50;;
61962;SDS011;47927;42.646;23.096;2023-04-25T06:50:24;6.90;;;2.90;;
61962;SDS011;47927;42.646;23.096;2023-04-25T06:52:49;4.43;;;2.25;;
61962;SDS011;47927;42.646;23.096;2023-04-25T06:55:16;4.93;;;2.30;;
61962;SDS011;47927;42.646;23.096;2023-04-25T06:57:56;4.47;;;2.35;;
61962;SDS011;47927;42.646;23.096;2023-04-25T07:00:42;5.10;;;2.70;;
61962;SDS011;47927;42.646;23.096;2023-04-25T07:03:07;9.30;;;2.78;;
61962;SDS011;47927;42.646;23.096;2023-04-25T07:05:33;6.60;;;2.33;;
61962;SDS011;47927;42.646;23.096;2023-04-25T07:07:59;5.80;;;2.50;;
61962;SDS011;47927;42.646;23.096;2023-04-25T07:10:26;4.10;;;2.42;;
61962;SDS011;47927;42.646;23.096;2023-04-25T07:12:52;4.30;;;2.50;;
61962;SDS011;47927;42.646;23.096;2023-04-25T07:15:19;5.03;;;2.50;;
61962;SDS011;47927;42.646;23.096;2023-04-25T07:17:47;5.82;;;2.80;;
61962;SDS011;47927;42.646;23.096;2023-04-25T07:20:12;5.15;;;3.10;;
61962;SDS011;47927;42.646;23.096;2023-04-25T07:22:38;3.95;;;2.60;;
61962;SDS011;47927;42.646;23.096;2023-04-25T07:25:04;9.95;;;2.50;;
61962;SDS011;47927;42.646;23.096;2023-04-25T07:27:31;4.03;;;2.72;;
61962;SDS011;47927;42.646;23.096;2023-04-25T07:30:17;5.22;;;2.28;;
61962;SDS011;47927;42.646;23.096;2023-04-25T07:32:43;3.83;;;2.10;;
61962;SDS011;47927;42.646;23.096;2023-04-25T07:35:08;4.68;;;2.28;;
61962;SDS011;47927;42.646;23.096;2023-04-25T07:37:35;3.22;;;1.88;;
61962;SDS011;47927;42.646;23.096;2023-04-25T07:40:07;3.45;;;2.10;;
61962;SDS011;47927;42.646;23.096;2023-04-25T07:42:34;3.10;;;2.03;;
61962;SDS011;47927;42.646;23.096;2023-04-25T07:45:00;2.65;;;2.10;;
61962;SDS011;47927;42.646;23.096;2023-04-25T07:47:27;2.72;;;1.63;;
61962;SDS011;47927;42.646;23.096;2023-04-25T07:49:53;5.90;;;1.75;;
61962;SDS011;47927;42.646;23.096;2023-04-25T07:52:20;5.05;;;1.88;;
61962;SDS011;47927;42.646;23.096;2023-04-25T07:54:52;2.42;;;1.48;;
61962;SDS011;47927;42.646;23.096;2023-04-25T07:57:23;3.40;;;2.03;;
61962;SDS011;47927;42.646;23.096;2023-04-25T07:59:51;2.75;;;1.55;;
61962;SDS011;47927;42.646;23.096;2023-04-25T08:02:18;3.10;;;1.30;;
61962;SDS011;47927;42.646;23.096;2023-04-25T08:04:44;4.53;;;1.50;;
61962;SDS011;47927;42.646;23.096;2023-04-25T08:07:29;3.88;;;1.60;;
61962;SDS011;47927;42.646;23.096;2023-04-25T08:10:00;2.35;;;1.40;;
61962;SDS011;47927;42.646;23.096;2023-04-25T08:12:30;2.85;;;1.45;;
61962;SDS011;47927;42.646;23.096;2023-04-25T08:14:57;1.88;;;1.30;;
61962;SDS011;47927;42.646;23.096;2023-04-25T08:17:25;1.55;;;1.20;;
61962;SDS011;47927;42.646;23.096;2023-04-25T08:19:51;3.30;;;1.50;;
61962;SDS011;47927;42.646;23.096;2023-04-25T08:22:29;3.08;;;1.63;;
61962;SDS011;47927;42.646;23.096;2023-04-25T08:25:20;2.88;;;1.98;;
61962;SDS011;47927;42.646;23.096;2023-04-25T08:27:47;4.60;;;1.90;;
61962;SDS011;47927;42.646;23.096;2023-04-25T08:30:14;2.53;;;1.50;;
61962;SDS011;47927;42.646;23.096;2023-04-25T08:32:41;6.03;;;1.60;;
61962;SDS011;47927;42.646;23.096;2023-04-25T08:35:20;2.17;;;1.00;;
61962;SDS011;47927;42.646;23.096;2023-04-25T08:37:46;2.75;;;1.30;;
61962;SDS011;47927;42.646;23.096;2023-04-25T08:40:14;1.73;;;1.10;;
61962;SDS011;47927;42.646;23.096;2023-04-25T08:42:48;2.63;;;1.70;;
61962;SDS011;47927;42.646;23.096;2023-04-25T08:45:15;1.25;;;0.85;;
61962;SDS011;47927;42.646;23.096;2023-04-25T08:47:42;2.05;;;0.95;;
61962;SDS011;47927;42.646;23.096;2023-04-25T08:50:10;2.47;;;1.10;;
61962;SDS011;47927;42.646;23.096;2023-04-25T08:52:37;2.60;;;1.30;;
61962;SDS011;47927;42.646;23.096;2023-04-25T08:55:10;1.88;;;1.23;;
61962;SDS011;47927;42.646;23.096;2023-04-25T08:57:39;2.30;;;1.20;;
61962;SDS011;47927;42.646;23.096;2023-04-25T09:00:08;2.47;;;1.42;;
61962;SDS011;47927;42.646;23.096;2023-04-25T09:02:38;2.20;;;1.02;;
61962;SDS011;47927;42.646;23.096;2023-04-25T09:05:06;1.63;;;0.98;;
61962;SDS011;47927;42.646;23.096;2023-04-25T09:07:35;2.45;;;0.90;;
61962;SDS011;47927;42.646;23.096;2023-04-25T09:10:00;2.67;;;0.98;;
61962;SDS011;47927;42.646;23.096;2023-04-25T09:12:30;1.20;;;0.90;;
61962;SDS011;47927;42.646;23.096;2023-04-25T09:17:56;1.85;;;0.98;;
61962;SDS011;47927;42.646;23.096;2023-04-25T09:20:23;1.70;;;0.88;;
61962;SDS011;47927;42.646;23.096;2023-04-25T09:23:00;1.95;;;1.27;;
61962;SDS011;47927;42.646;23.096;2023-04-25T09:25:28;3.45;;;1.40;;
61962;SDS011;47927;42.646;23.096;2023-04-25T09:28:03;1.67;;;1.00;;
61962;SDS011;47927;42.646;23.096;2023-04-25T09:30:31;2.70;;;1.10;;
61962;SDS011;47927;42.646;23.096;2023-04-25T09:33:23;1.85;;;1.10;;
61962;SDS011;47927;42.646;23.096;2023-04-25T09:35:54;1.38;;;1.05;;
61962;SDS011;47927;42.646;23.096;2023-04-25T09:38:41;1.80;;;0.90;;
61962;SDS011;47927;42.646;23.096;2023-04-25T09:41:15;2.28;;;1.20;;
61962;SDS011;47927;42.646;23.096;2023-04-25T09:43:48;3.30;;;1.13;;
61962;SDS011;47927;42.646;23.096;2023-04-25T09:46:14;5.72;;;3.83;;
61962;SDS011;47927;42.646;23.096;2023-04-25T09:48:49;3.80;;;2.58;;
61962;SDS011;47927;42.646;23.096;2023-04-25T09:51:18;1.58;;;0.93;;
61962;SDS011;47927;42.646;23.096;2023-04-25T09:53:45;1.38;;;0.90;;
61962;SDS011;47927;42.646;23.096;2023-04-25T09:56:40;1.70;;;0.93;;
61962;SDS011;47927;42.646;23.096;2023-04-25T09:59:07;2.30;;;0.98;;
61962;SDS011;47927;42.646;23.096;2023-04-25T10:01:36;1.70;;;1.00;;
61962;SDS011;47927;42.646;23.096;2023-04-25T10:04:13;2.58;;;1.20;;
61962;SDS011;47927;42.646;23.096;2023-04-25T10:06:54;2.13;;;1.00;;
61962;SDS011;47927;42.646;23.096;2023-04-25T10:09:21;1.27;;;0.80;;
61962;SDS011;47927;42.646;23.096;2023-04-25T10:11:51;1.67;;;0.90;;
61962;SDS011;47927;42.646;23.096;2023-04-25T10:14:18;1.17;;;0.88;;
61962;SDS011;47927;42.646;23.096;2023-04-25T10:16:45;1.92;;;0.80;;
61962;SDS011;47927;42.646;23.096;2023-04-25T10:19:10;2.78;;;0.90;;
61962;SDS011;47927;42.646;23.096;2023-04-25T10:21:38;1.05;;;0.80;;
61962;SDS011;47927;42.646;23.096;2023-04-25T10:24:15;1.42;;;0.80;;
61962;SDS011;47927;42.646;23.096;2023-04-25T10:26:41;1.20;;;0.80;;
61962;SDS011;47927;42.646;23.096;2023-04-25T10:29:06;1.73;;;0.90;;
61962;SDS011;47927;42.646;23.096;2023-04-25T10:31:32;1.90;;;1.10;;
61962;SDS011;47927;42.646;23.096;2023-04-25T10:33:59;1.38;;;0.80;;
61962;SDS011;47927;42.646;23.096;2023-04-25T10:36:25;1.85;;;1.10;;
61962;SDS011;47927;42.646;23.096;2023-04-25T10:38:52;1.10;;;1.00;;
61962;SDS011;47927;42.646;23.096;2023-04-25T10:41:19;1.50;;;0.80;;
61962;SDS011;47927;42.646;23.096;2023-04-25T10:43:46;1.75;;;1.00;;
61962;SDS011;47927;42.646;23.096;2023-04-25T10:48:48;1.65;;;1.00;;
61962;SDS011;47927;42.646;23.096;2023-04-25T10:51:22;1.33;;;1.00;;
61962;SDS011;47927;42.646;23.096;2023-04-25T10:58:49;2.47;;;0.90;;
61962;SDS011;47927;42.646;23.096;2023-04-25T11:01:15;2.00;;;0.80;;
61962;SDS011;47927;42.646;23.096;2023-04-25T11:03:44;1.40;;;0.80;;
61962;SDS011;47927;42.646;23.096;2023-04-25T11:06:18;1.30;;;0.70;;
61962;SDS011;47927;42.646;23.096;2023-04-25T11:08:48;3.90;;;1.40;;
61962;SDS011;47927;42.646;23.096;2023-04-25T11:11:18;2.38;;;1.20;;
61962;SDS011;47927;42.646;23.096;2023-04-25T11:13:47;1.52;;;0.80;;
61962;SDS011;47927;42.646;23.096;2023-04-25T11:16:13;1.67;;;0.85;;
61962;SDS011;47927;42.646;23.096;2023-04-25T11:18:42;1.02;;;0.80;;
61962;SDS011;47927;42.646;23.096;2023-04-25T11:23:35;2.47;;;1.20;;
61962;SDS011;47927;42.646;23.096;2023-04-25T11:26:02;4.45;;;1.08;;
61962;SDS011;47927;42.646;23.096;2023-04-25T11:28:28;2.60;;;1.38;;
61962;SDS011;47927;42.646;23.096;2023-04-25T11:30:54;1.55;;;0.85;;
61962;SDS011;47927;42.646;23.096;2023-04-25T11:33:24;2.70;;;1.20;;
61962;SDS011;47927;42.646;23.096;2023-04-25T11:35:51;2.83;;;1.20;;
61962;SDS011;47927;42.646;23.096;2023-04-25T11:38:19;2.65;;;1.10;;
61962;SDS011;47927;42.646;23.096;2023-04-25T11:40:49;1.20;;;0.80;;
61962;SDS011;47927;42.646;23.096;2023-04-25T11:43:15;1.13;;;0.70;;
61962;SDS011;47927;42.646;23.096;2023-04-25T11:45:45;1.88;;;0.70;;
61962;SDS011;47927;42.646;23.096;2023-04-25T11:48:12;1.23;;;0.90;;
61962;SDS011;47927;42.646;23.096;2023-04-25T11:50:38;1.90;;;0.80;;
61962;SDS011;47927;42.646;23.096;2023-04-25T11:53:04;3.05;;;1.00;;
61962;SDS011;47927;42.646;23.096;2023-04-25T11:55:31;1.17;;;0.85;;
61962;SDS011;47927;42.646;23.096;2023-04-25T11:57:59;2.15;;;0.88;;
61962;SDS011;47927;42.646;23.096;2023-04-25T12:00:25;4.15;;;1.00;;
61962;SDS011;47927;42.646;23.096;2023-04-25T12:02:52;1.83;;;0.95;;
61962;SDS011;47927;42.646;23.096;2023-04-25T12:05:19;1.88;;;1.02;;
61962;SDS011;47927;42.646;23.096;2023-04-25T12:07:45;2.90;;;1.35;;
61962;SDS011;47927;42.646;23.096;2023-04-25T12:10:12;2.40;;;1.08;;
61962;SDS011;47927;42.646;23.096;2023-04-25T12:12:44;4.10;;;1.40;;
61962;SDS011;47927;42.646;23.096;2023-04-25T12:15:17;4.68;;;1.92;;
61962;SDS011;47927;42.646;23.096;2023-04-25T12:17:45;6.15;;;2.05;;
61962;SDS011;47927;42.646;23.096;2023-04-25T12:20:15;7.00;;;2.33;;
61962;SDS011;47927;42.646;23.096;2023-04-25T12:22:44;6.63;;;2.50;;
61962;SDS011;47927;42.646;23.096;2023-04-25T12:33:33;1.10;;;0.70;;
61962;SDS011;47927;42.646;23.096;2023-04-25T12:36:00;1.58;;;0.70;;
61962;SDS011;47927;42.646;23.096;2023-04-25T12:38:40;0.98;;;0.70;;
61962;SDS011;47927;42.646;23.096;2023-04-25T12:41:07;1.55;;;0.80;;
61962;SDS011;47927;42.646;23.096;2023-04-25T12:43:33;1.63;;;0.75;;
61962;SDS011;47927;42.646;23.096;2023-04-25T12:45:59;2.58;;;0.95;;
61962;SDS011;47927;42.646;23.096;2023-04-25T12:48:25;1.58;;;0.85;;
61962;SDS011;47927;42.646;23.096;2023-04-25T12:50:51;1.92;;;1.00;;
61962;SDS011;47927;42.646;23.096;2023-04-25T12:53:21;1.33;;;0.70;;
61962;SDS011;47927;42.646;23.096;2023-04-25T12:55:48;2.45;;;1.02;;
61962;SDS011;47927;42.646;23.096;2023-04-25T12:58:14;2.85;;;0.88;;
61962;SDS011;47927;42.646;23.096;2023-04-25T13:00:40;8.52;;;1.60;;
61962;SDS011;47927;42.646;23.096;2023-04-25T13:03:06;9.80;;;1.73;;
61962;SDS011;47927;42.646;23.096;2023-04-25T13:05:31;4.72;;;1.25;;
61962;SDS011;47927;42.646;23.096;2023-04-25T13:07:57;2.90;;;1.15;;
61962;SDS011;47927;42.646;23.096;2023-04-25T13:10:22;3.53;;;1.20;;
61962;SDS011;47927;42.646;23.096;2023-04-25T13:12:48;3.15;;;1.35;;
61962;SDS011;47927;42.646;23.096;2023-04-25T13:15:14;2.95;;;1.20;;
61962;SDS011;47927;42.646;23.096;2023-04-25T13:17:41;4.38;;;1.23;;
61962;SDS011;47927;42.646;23.096;2023-04-25T13:20:07;3.67;;;1.50;;
61962;SDS011;47927;42.646;23.096;2023-04-25T13:22:35;7.20;;;2.42;;
61962;SDS011;47927;42.646;23.096;2023-04-25T13:25:04;7.63;;;1.90;;
61962;SDS011;47927;42.646;23.096;2023-04-25T13:27:32;7.65;;;1.70;;
61962;SDS011;47927;42.646;23.096;2023-04-25T13:29:59;8.02;;;1.90;;
61962;SDS011;47927;42.646;23.096;2023-04-25T13:32:26;3.63;;;1.23;;
61962;SDS011;47927;42.646;23.096;2023-04-25T13:35:01;3.40;;;1.52;;
61962;SDS011;47927;42.646;23.096;2023-04-25T13:37:27;6.15;;;1.70;;
61962;SDS011;47927;42.646;23.096;2023-04-25T13:39:54;5.82;;;1.52;;
61962;SDS011;47927;42.646;23.096;2023-04-25T13:42:21;2.60;;;1.20;;
61962;SDS011;47927;42.646;23.096;2023-04-25T13:44:48;4.18;;;1.42;;
61962;SDS011;47927;42.646;23.096;2023-04-25T13:47:13;2.00;;;0.95;;
61962;SDS011;47927;42.646;23.096;2023-04-25T13:49:39;2.47;;;1.05;;
61962;SDS011;47927;42.646;23.096;2023-04-25T13:52:05;3.05;;;1.25;;
61962;SDS011;47927;42.646;23.096;2023-04-25T13:54:30;5.70;;;1.50;;
61962;SDS011;47927;42.646;23.096;2023-04-25T13:56:56;1.60;;;0.93;;
61962;SDS011;47927;42.646;23.096;2023-04-25T13:59:24;1.90;;;0.98;;
61962;SDS011;47927;42.646;23.096;2023-04-25T14:01:51;2.25;;;0.93;;
61962;SDS011;47927;42.646;23.096;2023-04-25T14:04:16;1.73;;;1.00;;
61962;SDS011;47927;42.646;23.096;2023-04-25T14:06:42;3.17;;;0.80;;
61962;SDS011;47927;42.646;23.096;2023-04-25T14:09:08;1.02;;;0.80;;
61962;SDS011;47927;42.646;23.096;2023-04-25T14:11:38;1.65;;;0.98;;
61962;SDS011;47927;42.646;23.096;2023-04-25T14:14:03;3.13;;;0.90;;
61962;SDS011;47927;42.646;23.096;2023-04-25T14:16:29;2.22;;;0.75;;
61962;SDS011;47927;42.646;23.096;2023-04-25T14:18:57;2.55;;;1.08;;
61962;SDS011;47927;42.646;23.096;2023-04-25T14:21:23;1.58;;;1.00;;
61962;SDS011;47927;42.646;23.096;2023-04-25T14:23:50;1.33;;;0.80;;
61962;SDS011;47927;42.646;23.096;2023-04-25T14:26:16;3.58;;;1.00;;
61962;SDS011;47927;42.646;23.096;2023-04-25T14:28:41;2.60;;;1.30;;
61962;SDS011;47927;42.646;23.096;2023-04-25T14:31:07;4.22;;;1.00;;
61962;SDS011;47927;42.646;23.096;2023-04-25T14:33:32;1.88;;;1.02;;
61962;SDS011;47927;42.646;23.096;2023-04-25T14:35:58;3.53;;;1.30;;
61962;SDS011;47927;42.646;23.096;2023-04-25T14:38:23;2.55;;;1.23;;
61962;SDS011;47927;42.646;23.096;2023-04-25T14:40:50;2.92;;;1.10;;
61962;SDS011;47927;42.646;23.096;2023-04-25T14:43:16;1.35;;;0.88;;
61962;SDS011;47927;42.646;23.096;2023-04-25T14:45:42;3.45;;;1.05;;
61962;SDS011;47927;42.646;23.096;2023-04-25T14:48:07;1.70;;;1.00;;
61962;SDS011;47927;42.646;23.096;2023-04-25T14:50:33;1.40;;;0.90;;
61962;SDS011;47927;42.646;23.096;2023-04-25T14:52:59;1.95;;;1.00;;
61962;SDS011;47927;42.646;23.096;2023-04-25T14:55:28;2.47;;;1.20;;
61962;SDS011;47927;42.646;23.096;2023-04-25T14:57:54;6.90;;;1.67;;
61962;SDS011;47927;42.646;23.096;2023-04-25T15:00:20;6.93;;;1.45;;
61962;SDS011;47927;42.646;23.096;2023-04-25T15:02:50;4.43;;;1.50;;
61962;SDS011;47927;42.646;23.096;2023-04-25T15:05:15;6.65;;;2.63;;
61962;SDS011;47927;42.646;23.096;2023-04-25T15:07:41;8.00;;;1.70;;
61962;SDS011;47927;42.646;23.096;2023-04-25T15:10:07;7.03;;;2.28;;
61962;SDS011;47927;42.646;23.096;2023-04-25T15:12:38;7.55;;;2.15;;
61962;SDS011;47927;42.646;23.096;2023-04-25T15:15:06;7.72;;;2.50;;
61962;SDS011;47927;42.646;23.096;2023-04-25T15:17:37;7.72;;;2.35;;
61962;SDS011;47927;42.646;23.096;2023-04-25T15:20:03;9.98;;;2.92;;
61962;SDS011;47927;42.646;23.096;2023-04-25T15:22:30;12.13;;;2.67;;
61962;SDS011;47927;42.646;23.096;2023-04-25T15:24:56;10.25;;;2.28;;
61962;SDS011;47927;42.646;23.096;2023-04-25T15:27:21;13.20;;;2.42;;
61962;SDS011;47927;42.646;23.096;2023-04-25T15:29:48;5.78;;;1.88;;
61962;SDS011;47927;42.646;23.096;2023-04-25T15:32:13;6.15;;;2.08;;
61962;SDS011;47927;42.646;23.096;2023-04-25T15:34:40;8.05;;;2.45;;